createdAt,value
2019-01-02T00:00:58.959Z,3.43
2019-01-02T00:03:28.870Z,3.77
2019-01-02T00:05:59.175Z,3.37
2019-01-02T00:08:29.102Z,3.50
2019-01-02T00:10:59.024Z,5.50
2019-01-02T00:13:29.431Z,3.80
2019-01-02T00:15:59.397Z,3.50
2019-01-02T00:18:29.733Z,2.90
2019-01-02T00:20:59.622Z,3.30
2019-01-02T00:23:29.872Z,4.73
2019-01-02T00:25:59.792Z,4.10
2019-01-02T00:28:29.753Z,4.50
2019-01-02T00:30:59.622Z,3.13
2019-01-02T00:33:29.554Z,3.43
2019-01-02T00:35:59.939Z,5.43
2019-01-02T00:38:29.771Z,4.03
2019-01-02T00:41:00.018Z,3.50
2019-01-02T00:43:29.828Z,5.93
2019-01-02T00:45:59.966Z,4.57
2019-01-02T00:48:30.769Z,4.60
2019-01-02T00:51:00.999Z,3.63
2019-01-02T00:53:30.881Z,3.60
2019-01-02T00:56:02.265Z,3.03
2019-01-02T00:58:32.364Z,3.90
2019-01-02T01:01:02.852Z,3.87
2019-01-02T01:03:32.771Z,3.33
2019-01-02T01:08:38.027Z,5.97
2019-01-02T01:11:08.711Z,5.93
2019-01-02T01:13:38.596Z,4.20
2019-01-02T01:16:08.596Z,3.53
2019-01-02T01:18:38.601Z,4.93
2019-01-02T01:21:08.581Z,2.57
2019-01-02T01:23:38.445Z,2.97
2019-01-02T01:26:08.282Z,3.97
2019-01-02T01:28:38.539Z,7.27
2019-01-02T01:31:08.375Z,3.47
2019-01-02T01:33:38.222Z,5.40
2019-01-02T01:36:08.413Z,3.17
2019-01-02T01:38:39.203Z,4.87
2019-01-02T01:41:09.194Z,2.63
2019-01-02T01:43:39.240Z,6.30
2019-01-02T01:46:09.255Z,3.20
2019-01-02T01:48:39.468Z,2.80
2019-01-02T01:51:09.361Z,3.47
2019-01-02T01:53:39.390Z,6.00
2019-01-02T01:56:09.682Z,6.10
2019-01-02T01:58:39.654Z,4.60
2019-01-02T02:01:09.593Z,4.00
2019-01-02T02:03:39.419Z,6.80
2019-01-02T02:06:09.357Z,5.83
2019-01-02T02:08:39.623Z,4.50
2019-01-02T02:11:09.469Z,4.87
2019-01-02T02:13:39.441Z,4.23
2019-01-02T02:16:09.657Z,7.30
2019-01-02T02:18:39.632Z,5.17
2019-01-02T02:21:09.780Z,9.77
2019-01-02T02:23:39.673Z,6.37
2019-01-02T02:26:09.692Z,4.77
2019-01-02T02:28:39.994Z,4.93
2019-01-02T02:31:10.113Z,6.03
2019-01-02T02:33:40.448Z,5.17
2019-01-02T02:36:10.761Z,8.33
2019-01-02T02:38:41.011Z,12.50
2019-01-02T02:41:11.313Z,7.13
2019-01-02T02:43:41.562Z,9.03
2019-01-02T02:46:11.520Z,4.73
2019-01-02T02:48:41.462Z,5.90
2019-01-02T02:51:11.593Z,6.93
2019-01-02T02:53:41.988Z,1.83
2019-01-02T02:56:12.341Z,3.43
2019-01-02T02:58:42.486Z,4.17
2019-01-02T03:01:12.861Z,4.83
2019-01-02T03:03:43.083Z,5.00
2019-01-02T03:06:13.315Z,1.73
2019-01-02T03:08:43.267Z,2.10
2019-01-02T03:11:13.220Z,2.63
2019-01-02T03:13:43.578Z,3.63
2019-01-02T03:16:13.576Z,6.20
2019-01-02T03:18:43.625Z,4.10
2019-01-02T03:21:13.883Z,3.13
2019-01-02T03:23:44.392Z,2.13
2019-01-02T03:26:14.215Z,2.27
2019-01-02T03:28:44.175Z,2.53
2019-01-02T03:31:14.415Z,4.10
2019-01-02T03:33:44.443Z,4.93
2019-01-02T03:36:14.372Z,5.17
2019-01-02T03:38:44.256Z,3.50
2019-01-02T03:41:14.213Z,6.33
2019-01-02T03:43:44.204Z,6.57
2019-01-02T03:46:14.248Z,5.80
2019-01-02T03:48:44.186Z,7.90
2019-01-02T03:51:14.172Z,4.53
2019-01-02T03:53:44.155Z,5.40
2019-01-02T03:56:14.151Z,3.93
2019-01-02T03:58:44.149Z,7.50
2019-01-02T04:01:14.201Z,8.97
2019-01-02T04:03:44.159Z,18.17
2019-01-02T04:06:14.180Z,6.47
2019-01-02T04:08:44.076Z,14.93
2019-01-02T04:11:14.016Z,10.27
2019-01-02T04:13:43.914Z,10.37
2019-01-02T04:16:14.561Z,8.90
2019-01-02T04:18:44.377Z,5.03
2019-01-02T04:21:14.283Z,9.07
2019-01-02T04:23:44.143Z,9.17
2019-01-02T04:26:14.000Z,7.17
2019-01-02T04:28:45.187Z,7.87
2019-01-02T04:31:15.133Z,4.43
2019-01-02T04:33:44.977Z,7.10
2019-01-02T04:36:14.994Z,4.60
2019-01-02T04:38:44.912Z,5.13
2019-01-02T04:41:14.954Z,8.73
2019-01-02T04:43:44.820Z,4.97
2019-01-02T04:46:14.713Z,5.70
2019-01-02T04:48:44.650Z,4.83
2019-01-02T04:51:14.572Z,7.17
2019-01-02T04:53:44.444Z,4.83
2019-01-02T04:56:14.508Z,5.33
2019-01-02T04:58:44.364Z,5.57
2019-01-02T05:01:14.352Z,10.80
2019-01-02T05:03:44.291Z,5.40
2019-01-02T05:06:14.153Z,3.50
2019-01-02T05:08:44.025Z,4.67
2019-01-02T05:11:13.934Z,7.40
2019-01-02T05:13:43.882Z,9.87
2019-01-02T05:16:13.780Z,9.47
2019-01-02T05:18:43.656Z,9.47
2019-01-02T05:21:14.677Z,7.03
2019-01-02T05:23:44.559Z,7.50
2019-01-02T05:26:14.378Z,6.97
2019-01-02T05:28:44.267Z,9.03
2019-01-02T05:31:14.154Z,4.73
2019-01-02T05:33:44.110Z,2.10
2019-01-02T05:36:13.941Z,6.50
2019-01-02T05:38:43.922Z,4.63
2019-01-02T05:41:13.832Z,7.30
2019-01-02T05:43:43.728Z,6.83
2019-01-02T05:46:13.602Z,10.23
2019-01-02T05:48:43.514Z,13.87
2019-01-02T05:51:13.555Z,5.67
2019-01-02T05:53:43.555Z,5.80
2019-01-02T05:56:13.600Z,11.63
2019-01-02T05:58:43.483Z,10.07
2019-01-02T06:01:13.410Z,6.90
2019-01-02T06:03:43.381Z,8.60
2019-01-02T06:06:13.292Z,7.60
2019-01-02T06:08:43.168Z,8.83
2019-01-02T06:11:13.132Z,6.27
2019-01-02T06:13:43.058Z,5.00
2019-01-02T06:16:13.249Z,7.60
2019-01-02T06:18:43.107Z,8.47
2019-01-02T06:21:13.014Z,6.73
2019-01-02T06:23:42.896Z,8.63
2019-01-02T06:26:12.873Z,8.93
2019-01-02T06:28:42.911Z,8.27
2019-01-02T06:31:12.906Z,10.73
2019-01-02T06:33:42.896Z,8.70
2019-01-02T06:36:12.816Z,12.23
2019-01-02T06:38:42.706Z,12.80
2019-01-02T06:41:12.646Z,10.50
2019-01-02T06:43:42.474Z,12.23
2019-01-02T06:46:12.429Z,8.43
2019-01-02T06:48:42.336Z,8.07
2019-01-02T06:53:50.430Z,11.10
2019-01-02T06:56:20.436Z,11.40
2019-01-02T06:58:50.290Z,7.67
2019-01-02T07:01:20.176Z,7.57
2019-01-02T07:03:50.063Z,18.03
2019-01-02T07:06:19.973Z,9.30
2019-01-02T07:08:49.883Z,11.10
2019-01-02T07:11:19.810Z,9.57
2019-01-02T07:13:49.762Z,16.17
2019-01-02T07:16:19.678Z,10.20
2019-01-02T07:18:49.568Z,13.27
2019-01-02T07:21:19.411Z,9.17
2019-01-02T07:23:49.436Z,10.47
2019-01-02T07:26:19.348Z,8.53
2019-01-02T07:28:49.220Z,9.13
2019-01-02T07:31:19.147Z,10.23
2019-01-02T07:34:04.073Z,9.13
2019-01-02T07:37:21.152Z,10.80
2019-01-02T07:40:11.096Z,12.77
2019-01-02T07:43:09.938Z,15.63
2019-01-02T07:46:16.807Z,15.53
2019-01-02T07:49:33.044Z,11.10
2019-01-02T07:53:02.171Z,10.67
2019-01-02T07:56:26.968Z,12.93
2019-01-02T07:59:42.705Z,9.77
2019-01-02T08:02:54.690Z,10.03
2019-01-02T08:06:08.804Z,12.13
2019-01-02T08:09:19.111Z,12.37
2019-01-02T08:12:06.293Z,9.70
2019-01-02T08:15:28.628Z,14.33
2019-01-02T08:18:27.380Z,17.77
2019-01-02T08:21:50.407Z,15.03
2019-01-02T08:25:00.527Z,9.37
2019-01-02T08:27:48.445Z,11.17
2019-01-02T08:30:46.883Z,8.33
2019-01-02T08:33:45.011Z,10.07
2019-01-02T08:36:40.168Z,9.63
2019-01-02T08:39:50.162Z,10.97
2019-01-02T08:43:12.308Z,13.93
2019-01-02T08:46:20.513Z,10.43
2019-01-02T08:49:06.841Z,14.63
2019-01-02T08:52:26.903Z,18.13
2019-01-02T08:55:22.737Z,11.00
2019-01-02T08:58:39.521Z,13.43
2019-01-02T09:01:35.758Z,10.13
2019-01-02T09:04:53.066Z,11.30
2019-01-02T09:08:22.441Z,15.33
2019-01-02T09:11:22.398Z,12.57
2019-01-02T09:14:29.161Z,14.77
2019-01-02T09:17:55.159Z,17.90
2019-01-02T09:20:55.178Z,17.20
2019-01-02T09:24:02.224Z,7.17
2019-01-02T09:27:20.741Z,15.10
2019-01-02T09:30:46.956Z,9.00
2019-01-02T09:33:42.210Z,5.90
2019-01-02T09:36:41.070Z,11.77
2019-01-02T09:39:26.578Z,15.47
2019-01-02T09:42:06.558Z,10.97
2019-01-02T09:45:29.825Z,15.87
2019-01-02T09:48:49.426Z,9.67
2019-01-02T09:52:07.723Z,13.43
2019-01-02T09:55:23.773Z,13.80
2019-01-02T09:58:31.020Z,12.73
2019-01-02T10:01:17.798Z,8.27
2019-01-02T10:04:33.896Z,13.40
2019-01-02T10:07:41.908Z,9.03
2019-01-02T10:11:14.433Z,9.87
2019-01-02T10:14:36.406Z,16.63
2019-01-02T10:17:50.243Z,12.70
2019-01-02T10:21:10.941Z,17.10
2019-01-02T10:24:07.446Z,29.93
2019-01-02T10:27:21.868Z,19.93
2019-01-02T10:30:21.634Z,10.33
2019-01-02T10:33:29.960Z,18.30
2019-01-02T10:36:40.271Z,7.63
2019-01-02T10:39:50.263Z,19.10
2019-01-02T10:42:52.302Z,10.87
2019-01-02T10:45:54.929Z,6.93
2019-01-02T10:48:49.159Z,15.57
2019-01-02T10:51:45.190Z,17.83
2019-01-02T10:54:59.439Z,21.77
2019-01-02T10:58:12.070Z,15.17
2019-01-02T11:01:31.310Z,13.33
2019-01-02T11:04:38.267Z,16.47
2019-01-02T11:07:48.424Z,14.53
2019-01-02T11:10:59.448Z,15.20
2019-01-02T11:14:02.631Z,18.00
2019-01-02T11:17:08.356Z,14.13
2019-01-02T11:20:31.440Z,12.67
2019-01-02T11:23:38.503Z,8.80
2019-01-02T11:27:17.828Z,13.73
2019-01-02T11:30:00.775Z,20.57
2019-01-02T11:33:05.897Z,11.33
2019-01-02T11:36:19.186Z,10.67
2019-01-02T11:39:37.902Z,12.87
2019-01-02T11:42:49.799Z,16.90
2019-01-02T11:45:22.679Z,10.37
2019-01-02T11:47:52.550Z,16.97
2019-01-02T11:50:22.492Z,14.33
2019-01-02T11:52:52.439Z,11.37
2019-01-02T11:55:22.423Z,14.23
2019-01-02T11:57:52.304Z,15.00
2019-01-02T12:00:22.318Z,11.67
2019-01-02T12:02:52.356Z,9.13
2019-01-02T12:05:22.668Z,8.03
2019-01-02T12:07:59.006Z,14.13
2019-01-02T12:10:28.898Z,18.63
2019-01-02T12:12:58.821Z,9.23
2019-01-02T12:15:28.999Z,13.37
2019-01-02T12:17:58.955Z,10.60
2019-01-02T12:20:28.850Z,12.40
2019-01-02T12:22:58.836Z,13.23
2019-01-02T12:25:28.796Z,18.80
2019-01-02T12:27:58.692Z,20.37
2019-01-02T12:30:28.767Z,13.37
2019-01-02T12:32:58.722Z,3.83
2019-01-02T12:35:28.622Z,10.87
2019-01-02T12:37:58.458Z,12.03
2019-01-02T12:40:28.433Z,21.50
2019-01-02T12:42:58.253Z,12.37
2019-01-02T12:45:28.109Z,10.97
2019-01-02T12:47:57.932Z,12.33
2019-01-02T12:50:27.888Z,11.87
2019-01-02T12:52:57.783Z,11.57
2019-01-02T12:55:27.656Z,15.77
2019-01-02T12:57:57.654Z,10.77
2019-01-02T13:00:31.160Z,13.03
2019-01-02T13:03:51.377Z,12.33
2019-01-02T13:06:51.376Z,16.20
2019-01-02T13:10:00.905Z,12.67
2019-01-02T13:13:13.661Z,14.63
2019-01-02T13:16:34.616Z,10.50
2019-01-02T13:19:29.464Z,17.20
2019-01-02T13:22:51.253Z,13.83
2019-01-02T13:25:31.354Z,18.17
2019-01-02T13:28:22.724Z,17.53
2019-01-02T13:31:23.325Z,12.20
2019-01-02T13:34:09.244Z,13.80
2019-01-02T13:37:05.198Z,7.93
2019-01-02T13:40:03.932Z,17.70
2019-01-02T13:43:10.831Z,11.20
2019-01-02T13:45:54.197Z,17.50
2019-01-02T13:49:04.355Z,10.83
2019-01-02T13:51:45.359Z,19.07
2019-01-02T13:54:15.215Z,18.37
2019-01-02T13:56:45.119Z,15.13
2019-01-02T13:59:14.996Z,14.47
2019-01-02T14:01:44.870Z,10.13
2019-01-02T14:04:14.810Z,12.03
2019-01-02T14:06:44.831Z,12.00
2019-01-02T14:09:14.668Z,11.77
2019-01-02T14:11:44.685Z,15.90
2019-01-02T14:14:14.567Z,5.77
2019-01-02T14:16:44.498Z,6.47
2019-01-02T14:19:14.325Z,6.30
2019-01-02T14:21:44.266Z,8.27
2019-01-02T14:24:14.222Z,4.20
2019-01-02T14:26:44.148Z,5.07
2019-01-02T14:29:15.935Z,4.10
2019-01-02T14:31:45.792Z,6.90
2019-01-02T14:34:15.787Z,5.50
2019-01-02T14:36:45.723Z,7.20
2019-01-02T14:39:15.624Z,7.27
2019-01-02T14:41:45.521Z,8.57
2019-01-02T14:44:15.361Z,10.13
2019-01-02T14:46:50.378Z,7.43
2019-01-02T14:49:16.878Z,9.23
2019-01-02T14:51:46.762Z,8.13
2019-01-02T14:54:16.591Z,10.63
2019-01-02T14:56:46.619Z,10.73
2019-01-02T14:59:16.499Z,10.80
2019-01-02T15:01:46.442Z,9.13
2019-01-02T15:04:16.369Z,5.67
2019-01-02T15:06:46.252Z,8.27
2019-01-02T15:09:16.127Z,8.13
2019-01-02T15:11:46.030Z,15.97
2019-01-02T15:14:15.982Z,7.83
2019-01-02T15:16:45.800Z,9.13
2019-01-02T15:19:15.747Z,9.53
2019-01-02T15:21:45.568Z,9.27
2019-01-02T15:24:15.448Z,7.43
2019-01-02T15:26:45.276Z,10.70
2019-01-02T15:29:15.220Z,7.73
2019-01-02T15:31:45.082Z,10.80
2019-01-02T15:34:14.935Z,9.37
2019-01-02T15:36:44.907Z,7.87
2019-01-02T15:39:14.984Z,6.53
2019-01-02T15:41:44.893Z,7.27
2019-01-02T15:44:15.037Z,8.97
2019-01-02T15:46:44.960Z,6.40
2019-01-02T15:49:14.889Z,7.60
2019-01-02T15:51:44.761Z,4.40
2019-01-02T15:54:14.621Z,7.07
2019-01-02T15:56:44.594Z,7.47
2019-01-02T15:59:14.586Z,8.57
2019-01-02T16:01:44.597Z,10.13
2019-01-02T16:04:14.775Z,10.87
2019-01-02T16:06:45.885Z,6.90
2019-01-02T16:09:15.786Z,8.60
2019-01-02T16:11:45.688Z,7.53
2019-01-02T16:14:17.045Z,9.17
2019-01-02T16:16:47.029Z,4.27
2019-01-02T16:19:16.957Z,9.97
2019-01-02T16:21:46.897Z,4.83
2019-01-02T16:24:17.861Z,4.40
2019-01-02T16:26:47.826Z,5.10
2019-01-02T16:29:17.747Z,4.00
2019-01-02T16:31:47.632Z,6.63
2019-01-02T16:34:17.615Z,4.43
2019-01-02T16:36:47.482Z,4.30
2019-01-02T16:39:17.354Z,4.90
2019-01-02T16:41:47.263Z,4.87
2019-01-02T16:44:17.196Z,7.10
2019-01-02T16:46:47.013Z,3.97
2019-01-02T16:49:17.056Z,5.73
2019-01-02T16:51:46.963Z,7.10
2019-01-02T16:54:16.833Z,5.93
2019-01-02T16:56:46.657Z,7.87
2019-01-02T16:59:16.505Z,6.23
2019-01-02T17:01:46.512Z,5.23
2019-01-02T17:04:16.451Z,4.77
2019-01-02T17:06:46.276Z,4.47
2019-01-02T17:09:16.291Z,5.10
2019-01-02T17:11:46.216Z,6.40
2019-01-02T17:14:16.142Z,7.37
2019-01-02T17:16:46.045Z,5.97
2019-01-02T17:19:15.917Z,4.77
2019-01-02T17:21:45.779Z,5.87
2019-01-02T17:24:15.625Z,6.87
2019-01-02T17:26:45.502Z,6.47
2019-01-02T17:29:15.463Z,7.00
2019-01-02T17:31:45.294Z,10.30
2019-01-02T17:34:15.135Z,5.97
2019-01-02T17:36:45.107Z,7.63
2019-01-02T17:39:14.953Z,8.30
2019-01-02T17:41:44.856Z,8.73
2019-01-02T17:44:14.771Z,5.07
2019-01-02T17:46:44.704Z,6.30
2019-01-02T17:49:14.569Z,9.80
2019-01-02T17:51:44.506Z,6.53
2019-01-02T17:54:14.422Z,5.23
2019-01-02T17:56:44.458Z,7.80
2019-01-02T17:59:14.471Z,6.63
2019-01-02T18:01:45.372Z,5.50
2019-01-02T18:04:15.645Z,9.17
2019-01-02T18:06:45.706Z,10.30
2019-01-02T18:09:15.618Z,7.80
2019-01-02T18:11:45.555Z,9.87
2019-01-02T18:14:15.532Z,6.93
2019-01-02T18:16:45.439Z,9.90
2019-01-02T18:19:15.304Z,9.93
2019-01-02T18:21:45.240Z,8.57
2019-01-02T18:24:15.107Z,11.50
2019-01-02T18:26:45.005Z,7.73
2019-01-02T18:29:14.896Z,8.27
2019-01-02T18:31:44.948Z,11.10
2019-01-02T18:34:14.825Z,9.07
2019-01-02T18:36:44.653Z,10.03
2019-01-02T18:39:14.670Z,10.00
2019-01-02T18:41:44.638Z,7.93
2019-01-02T18:44:20.265Z,10.17
2019-01-02T18:46:46.236Z,10.57
2019-01-02T18:49:16.183Z,10.17
2019-01-02T18:51:46.156Z,8.30
2019-01-02T18:54:16.710Z,7.37
2019-01-02T18:56:46.617Z,14.13
2019-01-02T18:59:16.480Z,8.00
2019-01-02T19:01:46.387Z,9.17
2019-01-02T19:04:16.284Z,9.90
2019-01-02T19:06:46.148Z,5.87
2019-01-02T19:09:15.972Z,5.97
2019-01-02T19:11:45.911Z,7.33
2019-01-02T19:14:15.725Z,8.17
2019-01-02T19:16:45.649Z,10.40
2019-01-02T19:19:15.486Z,7.27
2019-01-02T19:21:45.435Z,9.10
2019-01-02T19:24:15.245Z,9.93
2019-01-02T19:26:45.174Z,10.83
2019-01-02T19:31:50.177Z,8.50
2019-01-02T19:34:20.068Z,8.27
2019-01-02T19:36:50.924Z,9.90
2019-01-02T19:39:20.908Z,8.73
2019-01-02T19:41:50.853Z,8.83
2019-01-02T19:44:20.815Z,8.17
2019-01-02T19:46:50.725Z,9.70
2019-01-02T19:49:20.728Z,7.03
2019-01-02T19:51:50.724Z,8.77
2019-01-02T19:54:20.605Z,9.67
2019-01-02T19:56:50.438Z,7.93
2019-01-02T19:59:20.303Z,11.47
2019-01-02T20:01:51.141Z,10.50
2019-01-02T20:04:21.096Z,10.60
2019-01-02T20:06:50.994Z,9.93
2019-01-02T20:09:20.864Z,9.77
2019-01-02T20:11:51.219Z,5.97
2019-01-02T20:14:21.062Z,7.30
2019-01-02T20:16:50.935Z,8.37
2019-01-02T20:19:20.766Z,7.77
2019-01-02T20:21:50.622Z,6.97
2019-01-02T20:24:20.535Z,7.23
2019-01-02T20:26:55.407Z,6.40
2019-01-02T20:29:22.139Z,7.83
2019-01-02T20:31:52.088Z,8.47
2019-01-02T20:34:21.917Z,10.83
2019-01-02T20:36:51.800Z,6.53
2019-01-02T20:39:21.679Z,10.57
2019-01-02T20:41:51.632Z,10.70
2019-01-02T20:44:21.486Z,7.87
2019-01-02T20:46:51.850Z,8.33
2019-01-02T20:49:21.664Z,7.90
2019-01-02T20:51:51.608Z,8.43
2019-01-02T20:54:21.471Z,6.67
2019-01-02T20:56:51.366Z,6.90
2019-01-02T20:59:21.240Z,8.50
2019-01-02T21:01:51.212Z,7.63
2019-01-02T21:04:21.097Z,4.93
2019-01-02T21:06:50.942Z,8.30
2019-01-02T21:09:20.793Z,6.73
2019-01-02T21:11:50.681Z,5.83
2019-01-02T21:14:20.692Z,8.77
2019-01-02T21:16:50.687Z,8.97
2019-01-02T21:19:20.605Z,6.70
2019-01-02T21:21:50.539Z,8.40
2019-01-02T21:24:20.473Z,8.10
2019-01-02T21:26:50.362Z,8.80
2019-01-02T21:29:20.308Z,7.63
2019-01-02T21:31:50.131Z,8.07
2019-01-02T21:34:20.003Z,10.53
2019-01-02T21:36:49.826Z,9.97
2019-01-02T21:39:19.720Z,8.13
2019-01-02T21:41:49.550Z,5.53
2019-01-02T21:44:19.489Z,9.37
2019-01-02T21:46:49.420Z,9.13
2019-01-02T21:49:19.322Z,8.80
2019-01-02T21:51:49.192Z,9.17
2019-01-02T21:54:19.106Z,8.33
2019-01-02T21:56:49.010Z,8.20
2019-01-02T21:59:18.991Z,6.33
2019-01-02T22:01:48.931Z,6.13
2019-01-02T22:04:18.888Z,8.37
2019-01-02T22:06:48.934Z,7.17
2019-01-02T22:09:18.868Z,9.03
2019-01-02T22:11:48.723Z,5.60
2019-01-02T22:14:18.607Z,9.90
2019-01-02T22:16:48.545Z,7.37
2019-01-02T22:19:18.458Z,9.07
2019-01-02T22:21:48.473Z,3.43
2019-01-02T22:24:18.372Z,3.80
2019-01-02T22:26:48.335Z,8.83
2019-01-02T22:29:18.159Z,4.50
2019-01-02T22:31:48.489Z,3.60
2019-01-02T22:34:18.352Z,5.50
2019-01-02T22:36:48.258Z,6.83
2019-01-02T22:39:18.257Z,4.87
2019-01-02T22:41:48.185Z,8.30
2019-01-02T22:44:18.153Z,7.53
2019-01-02T22:46:48.089Z,6.27
2019-01-02T22:49:18.034Z,10.50
2019-01-02T22:51:47.887Z,4.87
2019-01-02T22:54:17.779Z,5.20
2019-01-02T22:56:47.896Z,3.13
2019-01-02T22:59:17.738Z,5.57
2019-01-02T23:01:53.407Z,10.00
2019-01-02T23:04:41.422Z,5.43
2019-01-02T23:07:22.394Z,5.73
2019-01-02T23:10:10.389Z,8.47
2019-01-02T23:13:06.795Z,6.60
2019-01-02T23:16:11.049Z,13.77
2019-01-02T23:18:52.369Z,2.03
2019-01-02T23:21:39.972Z,6.47
2019-01-02T23:24:41.149Z,4.57
2019-01-02T23:27:48.450Z,6.47
2019-01-02T23:30:32.483Z,6.10
2019-01-02T23:33:28.767Z,3.13
2019-01-02T23:36:14.706Z,4.83
2019-01-02T23:39:09.911Z,3.93
2019-01-02T23:42:10.644Z,4.50
2019-01-02T23:45:09.226Z,5.87
2019-01-02T23:47:56.990Z,4.43
2019-01-02T23:50:44.593Z,5.70
2019-01-02T23:53:32.448Z,3.83
2019-01-02T23:56:20.051Z,8.13
2019-01-02T23:59:07.820Z,5.77
